createdAt,value
2022-10-31T00:01:30.236Z,9.80
2022-10-31T00:03:57.552Z,9.80
2022-10-31T00:06:25.038Z,9.70
2022-10-31T00:08:58.165Z,9.70
2022-10-31T00:11:26.298Z,9.70
2022-10-31T00:13:54.438Z,9.70
2022-10-31T00:16:23.950Z,9.70
2022-10-31T00:18:53.975Z,9.70
2022-10-31T00:21:22.205Z,9.70
2022-10-31T00:23:50.064Z,9.60
2022-10-31T00:26:17.918Z,9.60
2022-10-31T00:28:45.677Z,9.60
2022-10-31T00:31:14.645Z,9.60
2022-10-31T00:33:42.890Z,9.60
2022-10-31T00:36:14.412Z,9.50
2022-10-31T00:38:42.202Z,9.50
2022-10-31T00:41:10.266Z,9.50
2022-10-31T00:43:37.685Z,9.40
2022-10-31T00:46:05.077Z,9.40
2022-10-31T00:48:32.686Z,9.40
2022-10-31T00:51:00.070Z,9.40
2022-10-31T00:53:27.706Z,9.40
2022-10-31T00:55:55.000Z,9.30
2022-10-31T00:58:22.338Z,9.30
2022-10-31T01:00:56.467Z,9.30
2022-10-31T01:03:30.831Z,9.30
2022-10-31T01:06:02.392Z,9.20
2022-10-31T01:08:30.592Z,9.20
2022-10-31T01:11:30.720Z,9.10
2022-10-31T01:13:58.606Z,9.00
2022-10-31T01:16:28.091Z,8.90
2022-10-31T01:18:55.483Z,8.90
2022-10-31T01:21:25.478Z,8.80
2022-10-31T01:23:55.163Z,8.80
2022-10-31T01:26:27.680Z,8.80
2022-10-31T01:28:57.476Z,8.80
2022-10-31T01:31:30.792Z,8.80
2022-10-31T01:33:58.525Z,8.80
2022-10-31T01:36:30.181Z,8.70
2022-10-31T01:39:00.329Z,8.70
2022-10-31T01:41:30.813Z,8.80
2022-10-31T01:44:01.041Z,8.70
2022-10-31T01:46:37.635Z,8.70
2022-10-31T01:49:10.722Z,8.60
2022-10-31T01:51:43.323Z,8.60
2022-10-31T01:54:16.918Z,8.60
2022-10-31T01:56:49.652Z,8.50
2022-10-31T01:59:20.155Z,8.50
2022-10-31T02:01:48.618Z,8.50
2022-10-31T02:04:17.182Z,8.50
2022-10-31T02:06:56.799Z,8.50
2022-10-31T02:09:25.931Z,8.50
2022-10-31T02:11:55.175Z,8.50
2022-10-31T02:14:28.215Z,8.40
2022-10-31T02:16:56.388Z,8.30
2022-10-31T02:19:38.744Z,8.30
2022-10-31T02:22:25.595Z,8.20
2022-10-31T02:25:23.728Z,8.20
2022-10-31T02:28:15.590Z,8.20
2022-10-31T02:31:07.170Z,8.20
2022-10-31T02:33:48.221Z,8.20
2022-10-31T02:36:40.717Z,8.10
2022-10-31T02:39:44.634Z,8.10
2022-10-31T02:42:19.458Z,8.10
2022-10-31T02:44:59.084Z,8.10
2022-10-31T02:47:30.726Z,8.10
2022-10-31T02:50:13.166Z,8.10
2022-10-31T02:52:41.306Z,8.10
2022-10-31T02:55:35.027Z,8.10
2022-10-31T02:58:15.005Z,8.10
2022-10-31T03:01:21.257Z,8.10
2022-10-31T03:04:00.738Z,8.10
2022-10-31T03:06:33.876Z,8.10
2022-10-31T03:09:06.976Z,8.20
2022-10-31T03:12:00.542Z,8.20
2022-10-31T03:15:04.604Z,8.20
2022-10-31T03:17:57.505Z,8.20
2022-10-31T03:20:36.588Z,8.20
2022-10-31T03:23:08.067Z,8.20
2022-10-31T03:25:38.486Z,8.20
2022-10-31T03:28:08.616Z,8.10
2022-10-31T03:30:39.303Z,8.10
2022-10-31T03:33:11.105Z,8.10
2022-10-31T03:35:40.928Z,8.10
2022-10-31T03:38:09.080Z,8.10
2022-10-31T03:40:41.047Z,8.20
2022-10-31T03:43:15.563Z,8.20
2022-10-31T03:45:46.800Z,8.20
2022-10-31T03:48:16.233Z,8.10
2022-10-31T03:50:56.132Z,8.20
2022-10-31T03:53:42.327Z,8.20
2022-10-31T03:56:13.564Z,8.20
2022-10-31T03:58:50.207Z,8.30
2022-10-31T04:01:20.692Z,8.20
2022-10-31T04:03:49.795Z,8.10
2022-10-31T04:06:19.798Z,8.10
2022-10-31T04:08:53.113Z,8.10
2022-10-31T04:11:25.424Z,8.10
2022-10-31T04:13:54.563Z,8.10
2022-10-31T04:16:23.169Z,8.10
2022-10-31T04:18:51.390Z,8.10
2022-10-31T04:21:18.806Z,8.10
2022-10-31T04:23:46.153Z,8.10
2022-10-31T04:26:14.791Z,8.00
2022-10-31T04:28:42.208Z,8.00
2022-10-31T04:31:12.993Z,7.90
2022-10-31T04:33:40.515Z,7.90
2022-10-31T04:36:08.382Z,7.80
2022-10-31T04:38:36.039Z,7.80
2022-10-31T04:41:03.351Z,7.80
2022-10-31T04:43:31.185Z,7.70
2022-10-31T04:45:58.684Z,7.70
2022-10-31T04:48:26.968Z,7.70
2022-10-31T04:50:54.425Z,7.70
2022-10-31T04:53:21.956Z,7.90
2022-10-31T04:55:49.525Z,8.00
2022-10-31T05:00:54.454Z,7.90
2022-10-31T05:03:22.538Z,7.90
2022-10-31T05:05:49.819Z,7.90
2022-10-31T05:08:17.501Z,7.90
2022-10-31T05:10:44.812Z,7.80
2022-10-31T05:13:12.813Z,7.70
2022-10-31T05:15:40.268Z,7.70
2022-10-31T05:18:07.554Z,7.70
2022-10-31T05:20:35.079Z,7.60
2022-10-31T05:23:02.384Z,7.60
2022-10-31T05:25:31.235Z,7.60
2022-10-31T05:27:59.380Z,7.60
2022-10-31T05:30:29.850Z,7.60
2022-10-31T05:32:58.397Z,7.70
2022-10-31T05:35:31.347Z,7.70
2022-10-31T05:38:00.346Z,7.70
2022-10-31T05:40:28.870Z,7.70
2022-10-31T05:42:58.070Z,7.70
2022-10-31T05:45:26.014Z,7.70
2022-10-31T05:47:59.349Z,7.80
2022-10-31T05:50:29.674Z,7.80
2022-10-31T05:53:02.256Z,7.80
2022-10-31T05:55:30.723Z,7.70
2022-10-31T05:57:59.007Z,7.70
2022-10-31T06:00:27.590Z,7.70
2022-10-31T06:03:06.728Z,7.70
2022-10-31T06:05:34.765Z,7.80
2022-10-31T06:08:02.602Z,7.90
2022-10-31T06:10:30.585Z,7.90
2022-10-31T06:12:57.931Z,7.90
2022-10-31T06:15:25.681Z,7.90
2022-10-31T06:18:04.109Z,7.90
2022-10-31T06:20:32.280Z,7.90
2022-10-31T06:23:00.105Z,7.90
2022-10-31T06:25:28.085Z,7.90
2022-10-31T06:27:55.742Z,7.90
2022-10-31T06:30:23.160Z,8.00
2022-10-31T06:32:52.353Z,8.00
2022-10-31T06:35:19.778Z,8.10
2022-10-31T06:37:57.193Z,8.10
2022-10-31T06:40:24.888Z,8.20
2022-10-31T06:43:02.095Z,8.20
2022-10-31T06:45:29.698Z,8.30
2022-10-31T06:50:45.481Z,8.30
2022-10-31T06:53:14.520Z,8.40
2022-10-31T06:55:42.683Z,8.50
2022-10-31T06:58:11.345Z,8.50
2022-10-31T07:00:38.946Z,8.60
2022-10-31T07:03:09.129Z,8.70
2022-10-31T07:05:36.446Z,8.90
2022-10-31T07:08:08.030Z,9.00
2022-10-31T07:10:40.115Z,9.10
2022-10-31T07:13:13.578Z,9.20
2022-10-31T07:15:42.334Z,9.30
2022-10-31T07:18:12.988Z,9.50
2022-10-31T07:20:40.326Z,9.60
2022-10-31T07:23:07.701Z,9.70
2022-10-31T07:25:35.011Z,9.80
2022-10-31T07:28:02.850Z,9.90
2022-10-31T07:30:30.391Z,10.00
2022-10-31T07:32:57.781Z,10.10
2022-10-31T07:35:27.262Z,10.20
2022-10-31T07:37:55.888Z,10.40
2022-10-31T07:40:24.367Z,10.50
2022-10-31T07:42:53.563Z,10.60
2022-10-31T07:45:22.159Z,10.70
2022-10-31T07:47:54.049Z,10.90
2022-10-31T07:50:24.011Z,11.10
2022-10-31T07:53:06.350Z,11.20
2022-10-31T07:55:34.457Z,11.30
2022-10-31T07:58:16.636Z,11.50
2022-10-31T08:00:46.223Z,11.60
2022-10-31T08:03:16.090Z,11.80
2022-10-31T08:05:43.484Z,12.00
2022-10-31T08:08:11.390Z,12.10
2022-10-31T08:10:39.265Z,12.30
2022-10-31T08:13:09.460Z,12.50
2022-10-31T08:15:39.489Z,12.60
2022-10-31T08:18:08.415Z,12.70
2022-10-31T08:20:35.926Z,12.90
2022-10-31T08:23:05.334Z,13.00
2022-10-31T08:25:38.234Z,13.40
2022-10-31T08:28:07.438Z,13.90
2022-10-31T08:30:36.953Z,14.50
2022-10-31T08:33:15.896Z,15.40
2022-10-31T08:35:43.748Z,16.10
2022-10-31T08:38:13.173Z,16.60
2022-10-31T08:40:41.340Z,17.20
2022-10-31T08:43:16.490Z,17.70
2022-10-31T08:45:45.578Z,18.20
2022-10-31T08:48:15.958Z,19.10
2022-10-31T08:50:44.866Z,19.60
2022-10-31T08:53:20.154Z,19.80
2022-10-31T08:55:48.296Z,20.30
2022-10-31T08:58:18.108Z,20.80
2022-10-31T09:00:47.189Z,21.50
2022-10-31T09:03:17.394Z,21.70
2022-10-31T09:05:45.147Z,21.90
2022-10-31T09:08:16.227Z,22.20
2022-10-31T09:10:45.573Z,22.90
2022-10-31T09:13:19.028Z,23.60
2022-10-31T09:15:49.121Z,24.30
2022-10-31T09:18:18.659Z,24.90
2022-10-31T09:20:47.769Z,24.90
2022-10-31T09:23:18.175Z,25.20
2022-10-31T09:25:50.463Z,25.60
2022-10-31T09:28:20.784Z,26.20
2022-10-31T09:30:54.908Z,26.60
2022-10-31T09:33:24.013Z,26.80
2022-10-31T09:35:51.621Z,27.10
2022-10-31T09:38:21.480Z,27.40
2022-10-31T09:40:58.641Z,27.60
2022-10-31T09:43:49.750Z,27.80
2022-10-31T09:46:17.092Z,28.20
2022-10-31T09:49:14.945Z,28.20
2022-10-31T09:51:51.930Z,28.20
2022-10-31T09:54:36.823Z,28.20
2022-10-31T09:57:05.199Z,28.40
2022-10-31T09:59:36.436Z,28.80
2022-10-31T10:02:12.680Z,28.60
2022-10-31T10:05:00.025Z,28.90
2022-10-31T10:08:06.909Z,29.10
2022-10-31T10:10:58.089Z,29.60
2022-10-31T10:13:41.139Z,29.60
2022-10-31T10:16:34.612Z,29.70
2022-10-31T10:19:16.950Z,29.70
2022-10-31T10:22:21.243Z,30.00
2022-10-31T10:25:03.173Z,30.30
2022-10-31T10:28:03.502Z,30.20
2022-10-31T10:30:41.596Z,30.20
2022-10-31T10:33:15.932Z,30.40
2022-10-31T10:36:05.034Z,30.30
2022-10-31T10:38:40.479Z,30.40
2022-10-31T10:41:15.686Z,30.30
2022-10-31T10:43:43.091Z,29.90
2022-10-31T10:46:43.866Z,29.30
2022-10-31T10:49:21.006Z,28.80
2022-10-31T10:52:19.386Z,28.00
2022-10-31T10:55:01.835Z,27.30
2022-10-31T10:57:51.699Z,26.60
2022-10-31T11:00:28.870Z,26.20
2022-10-31T11:02:57.536Z,26.10
2022-10-31T11:05:38.455Z,25.60
2022-10-31T11:08:06.627Z,25.40
2022-10-31T11:10:34.956Z,25.40
2022-10-31T11:13:20.693Z,25.30
2022-10-31T11:15:54.346Z,25.10
2022-10-31T11:20:59.262Z,24.80
2022-10-31T11:23:29.262Z,24.70
2022-10-31T11:26:01.309Z,24.50
2022-10-31T11:28:36.793Z,24.40
2022-10-31T11:31:15.294Z,24.40
2022-10-31T11:33:54.432Z,24.30
2022-10-31T11:36:27.499Z,24.20
2022-10-31T11:38:55.670Z,24.20
2022-10-31T11:41:39.755Z,24.30
2022-10-31T11:44:28.598Z,24.40
2022-10-31T11:47:04.467Z,24.90
2022-10-31T11:49:44.137Z,25.50
2022-10-31T11:52:27.222Z,26.20
2022-10-31T11:55:03.701Z,26.60
2022-10-31T11:57:44.721Z,26.70
2022-10-31T12:00:31.993Z,26.50
2022-10-31T12:03:17.975Z,26.30
2022-10-31T12:05:48.943Z,25.90
2022-10-31T12:08:16.421Z,25.80
2022-10-31T12:11:00.724Z,25.60
2022-10-31T12:14:03.535Z,25.70
2022-10-31T12:16:43.898Z,25.90
2022-10-31T12:19:32.756Z,26.30
2022-10-31T12:22:25.814Z,27.20
2022-10-31T12:25:02.769Z,28.10
2022-10-31T12:27:55.055Z,29.40
2022-10-31T12:30:31.501Z,29.80
2022-10-31T12:33:16.776Z,30.00
2022-10-31T12:36:31.676Z,30.40
2022-10-31T12:39:40.262Z,31.10
2022-10-31T12:42:45.625Z,31.30
2022-10-31T12:45:23.823Z,31.30
2022-10-31T12:48:20.663Z,31.20
2022-10-31T12:51:09.830Z,31.20
2022-10-31T12:54:18.296Z,31.60
2022-10-31T12:57:25.240Z,31.70
2022-10-31T13:00:02.969Z,32.10
2022-10-31T13:02:43.920Z,32.30
2022-10-31T13:05:38.832Z,32.30
2022-10-31T13:08:14.072Z,32.40
2022-10-31T13:11:19.680Z,32.10
2022-10-31T13:14:14.255Z,31.90
2022-10-31T13:16:51.175Z,32.30
2022-10-31T13:19:29.185Z,32.40
2022-10-31T13:22:06.392Z,32.30
2022-10-31T13:24:59.153Z,31.60
2022-10-31T13:27:32.281Z,31.40
2022-10-31T13:30:14.832Z,31.30
2022-10-31T13:33:21.557Z,31.60
2022-10-31T13:35:52.672Z,31.70
2022-10-31T13:38:22.908Z,31.40
2022-10-31T13:41:01.808Z,30.90
2022-10-31T13:43:29.115Z,30.40
2022-10-31T13:45:57.128Z,30.10
2022-10-31T13:48:35.387Z,29.70
2022-10-31T13:51:09.057Z,29.40
2022-10-31T13:53:38.310Z,29.50
2022-10-31T13:56:24.852Z,29.20
2022-10-31T13:59:05.862Z,28.70
2022-10-31T14:01:34.759Z,28.60
2022-10-31T14:04:25.283Z,28.40
2022-10-31T14:07:06.112Z,27.70
2022-10-31T14:10:07.472Z,27.10
2022-10-31T14:12:44.161Z,26.50
2022-10-31T14:15:17.556Z,26.00
2022-10-31T14:17:49.603Z,25.60
2022-10-31T14:20:16.891Z,25.20
2022-10-31T14:22:44.401Z,25.20
2022-10-31T14:25:31.791Z,25.10
2022-10-31T14:28:00.719Z,24.80
2022-10-31T14:30:29.918Z,24.50
2022-10-31T14:33:01.853Z,24.30
2022-10-31T14:35:59.939Z,24.00
2022-10-31T14:38:48.316Z,23.60
2022-10-31T14:41:30.707Z,23.30
2022-10-31T14:44:41.295Z,23.00
2022-10-31T14:47:33.886Z,22.80
2022-10-31T14:50:42.329Z,22.50
2022-10-31T14:53:24.954Z,22.30
2022-10-31T14:55:55.749Z,22.10
2022-10-31T15:01:09.764Z,21.70
2022-10-31T15:03:44.724Z,21.50
2022-10-31T15:06:18.069Z,21.40
2022-10-31T15:08:46.589Z,21.20
2022-10-31T15:11:20.081Z,21.00
2022-10-31T15:13:58.593Z,20.80
2022-10-31T15:16:35.869Z,20.60
2022-10-31T15:19:09.285Z,20.40
2022-10-31T15:21:41.638Z,20.20
2022-10-31T15:24:17.181Z,20.10
2022-10-31T15:26:49.434Z,19.90
2022-10-31T15:29:19.914Z,19.70
2022-10-31T15:31:54.073Z,19.50
2022-10-31T15:34:35.861Z,19.30
2022-10-31T15:37:03.408Z,19.20
2022-10-31T15:39:30.993Z,19.00
2022-10-31T15:42:01.038Z,18.90
2022-10-31T15:44:30.328Z,18.70
2022-10-31T15:47:03.624Z,18.60
2022-10-31T15:49:42.337Z,18.40
2022-10-31T15:52:33.767Z,18.30
2022-10-31T15:55:19.232Z,18.10
2022-10-31T15:57:50.169Z,17.90
2022-10-31T16:00:31.866Z,17.80
2022-10-31T16:03:14.110Z,17.60
2022-10-31T16:05:53.290Z,17.40
2022-10-31T16:08:34.483Z,17.20
2022-10-31T16:11:07.695Z,17.00
2022-10-31T16:13:41.867Z,16.80
2022-10-31T16:19:07.235Z,16.60
2022-10-31T16:21:39.995Z,16.50
2022-10-31T16:24:33.221Z,16.40
2022-10-31T16:27:06.720Z,16.40
2022-10-31T16:29:35.681Z,16.10
2022-10-31T16:32:03.691Z,15.80
2022-10-31T16:34:31.322Z,15.70
2022-10-31T16:37:00.147Z,15.50
2022-10-31T16:39:27.386Z,15.50
2022-10-31T16:41:57.938Z,15.40
2022-10-31T16:44:27.947Z,15.20
2022-10-31T16:47:09.536Z,15.10
2022-10-31T16:49:37.424Z,15.10
2022-10-31T16:52:04.802Z,15.10
2022-10-31T16:54:32.199Z,15.10
2022-10-31T16:57:01.335Z,15.10
2022-10-31T16:59:29.264Z,15.00
2022-10-31T17:01:57.157Z,15.00
2022-10-31T17:04:26.425Z,15.00
2022-10-31T17:06:54.089Z,14.90
2022-10-31T17:09:21.583Z,14.90
2022-10-31T17:11:53.249Z,14.80
2022-10-31T17:14:20.894Z,14.60
2022-10-31T17:16:48.456Z,14.60
2022-10-31T17:19:16.166Z,14.50
2022-10-31T17:21:43.677Z,14.50
2022-10-31T17:24:16.153Z,14.40
2022-10-31T17:26:43.790Z,14.40
2022-10-31T17:29:12.178Z,14.30
2022-10-31T17:31:39.664Z,14.30
2022-10-31T17:34:08.929Z,14.20
2022-10-31T17:36:37.011Z,14.20
2022-10-31T17:39:06.113Z,14.10
2022-10-31T17:41:33.555Z,14.00
2022-10-31T17:44:01.093Z,13.90
2022-10-31T17:46:29.903Z,13.80
2022-10-31T17:48:58.187Z,13.70
2022-10-31T17:51:25.912Z,13.70
2022-10-31T17:53:53.802Z,13.60
2022-10-31T17:56:21.481Z,13.60
2022-10-31T17:58:48.866Z,13.60
2022-10-31T18:01:17.891Z,13.50
2022-10-31T18:03:45.822Z,13.50
2022-10-31T18:06:17.037Z,13.50
2022-10-31T18:08:45.050Z,13.40
2022-10-31T18:11:16.424Z,13.40
2022-10-31T18:13:46.013Z,13.30
2022-10-31T18:16:23.929Z,13.30
2022-10-31T18:18:55.024Z,13.20
2022-10-31T18:21:22.746Z,13.20
2022-10-31T18:23:55.273Z,13.10
2022-10-31T18:26:23.809Z,13.00
2022-10-31T18:28:51.174Z,12.90
2022-10-31T18:31:18.661Z,12.90
2022-10-31T18:33:46.437Z,12.90
2022-10-31T18:36:14.938Z,12.90
2022-10-31T18:38:46.636Z,12.80
2022-10-31T18:41:15.759Z,12.70
2022-10-31T18:43:43.946Z,12.70
2022-10-31T18:46:15.218Z,12.60
2022-10-31T18:48:44.472Z,12.60
2022-10-31T18:51:15.044Z,12.50
2022-10-31T18:53:42.694Z,12.50
2022-10-31T18:56:11.971Z,12.40
2022-10-31T18:58:39.458Z,12.40
2022-10-31T19:01:14.395Z,12.30
2022-10-31T19:03:42.639Z,12.20
2022-10-31T19:06:10.438Z,12.20
2022-10-31T19:08:39.166Z,12.10
2022-10-31T19:11:07.559Z,12.10
2022-10-31T19:13:35.901Z,12.10
2022-10-31T19:16:14.762Z,12.00
2022-10-31T19:18:43.701Z,12.00
2022-10-31T19:21:16.202Z,11.90
2022-10-31T19:23:44.590Z,11.90
2022-10-31T19:26:13.190Z,11.80
2022-10-31T19:28:41.879Z,11.80
2022-10-31T19:31:09.914Z,11.70
2022-10-31T19:33:37.833Z,11.70
2022-10-31T19:36:13.856Z,11.60
2022-10-31T19:38:43.654Z,11.50
2022-10-31T19:41:14.410Z,11.40
2022-10-31T19:43:42.848Z,11.30
2022-10-31T19:46:22.272Z,11.30
2022-10-31T19:48:59.984Z,11.30
2022-10-31T19:51:28.018Z,11.20
2022-10-31T19:53:55.728Z,11.20
2022-10-31T19:56:25.314Z,11.20
2022-10-31T19:58:52.789Z,11.10
2022-10-31T20:01:22.721Z,11.10
2022-10-31T20:03:51.047Z,11.10
2022-10-31T20:06:33.558Z,11.10
2022-10-31T20:09:03.860Z,11.00
2022-10-31T20:11:32.094Z,11.00
2022-10-31T20:14:00.525Z,11.00
2022-10-31T20:16:29.175Z,11.00
2022-10-31T20:18:57.277Z,10.90
2022-10-31T20:21:27.157Z,10.90
2022-10-31T20:24:00.125Z,10.90
2022-10-31T20:26:28.793Z,10.90
2022-10-31T20:28:57.438Z,10.70
2022-10-31T20:31:27.455Z,10.60
2022-10-31T20:33:56.117Z,10.50
2022-10-31T20:36:24.149Z,10.40
2022-10-31T20:38:52.912Z,10.40
2022-10-31T20:41:20.375Z,10.50
2022-10-31T20:43:47.896Z,10.50
2022-10-31T20:46:24.055Z,10.40
2022-10-31T20:48:51.818Z,10.40
2022-10-31T20:51:22.243Z,10.30
2022-10-31T20:53:51.258Z,10.30
2022-10-31T20:56:20.944Z,10.30
2022-10-31T20:58:49.258Z,10.30
2022-10-31T21:01:24.094Z,10.30
2022-10-31T21:03:52.483Z,10.30
2022-10-31T21:06:21.627Z,10.30
2022-10-31T21:08:49.715Z,10.20
2022-10-31T21:11:20.438Z,10.20
2022-10-31T21:13:49.029Z,10.20
2022-10-31T21:16:19.730Z,10.20
2022-10-31T21:18:49.490Z,10.10
2022-10-31T21:21:19.995Z,10.10
2022-10-31T21:23:48.166Z,10.10
2022-10-31T21:26:23.981Z,10.10
2022-10-31T21:28:54.265Z,10.10
2022-10-31T21:31:21.956Z,10.00
2022-10-31T21:33:49.422Z,9.90
2022-10-31T21:36:17.442Z,9.80
2022-10-31T21:38:45.393Z,9.70
2022-10-31T21:41:15.268Z,9.70
2022-10-31T21:43:44.703Z,9.60
2022-10-31T21:46:17.629Z,9.60
2022-10-31T21:48:45.859Z,9.50
2022-10-31T21:51:19.407Z,9.50
2022-10-31T21:54:05.549Z,9.50
2022-10-31T21:56:33.545Z,9.50
2022-10-31T21:59:01.438Z,9.50
2022-10-31T22:01:30.383Z,9.60
2022-10-31T22:03:58.970Z,9.60
2022-10-31T22:06:27.615Z,9.50
2022-10-31T22:08:55.321Z,9.50
2022-10-31T22:11:23.313Z,9.50
2022-10-31T22:13:51.208Z,9.50
2022-10-31T22:16:20.738Z,9.50
2022-10-31T22:18:49.062Z,9.50
2022-10-31T22:21:18.516Z,9.40
2022-10-31T22:23:54.185Z,9.40
2022-10-31T22:26:21.805Z,9.30
2022-10-31T22:28:56.191Z,9.20
2022-10-31T22:31:24.878Z,9.10
2022-10-31T22:33:52.736Z,9.10
2022-10-31T22:36:22.268Z,9.10
2022-10-31T22:38:50.080Z,9.00
2022-10-31T22:41:20.692Z,9.10
2022-10-31T22:43:48.917Z,9.10
2022-10-31T22:46:37.673Z,9.10
2022-10-31T22:49:09.263Z,9.10
2022-10-31T22:51:39.017Z,9.10
2022-10-31T22:54:08.517Z,9.10
2022-10-31T22:56:36.270Z,9.10
2022-10-31T22:59:04.088Z,9.10
2022-10-31T23:01:34.964Z,9.10
2022-10-31T23:04:03.198Z,9.10
2022-10-31T23:06:31.742Z,9.10
2022-10-31T23:09:01.428Z,9.10
2022-10-31T23:11:34.349Z,9.10
2022-10-31T23:14:10.689Z,9.10
2022-10-31T23:16:42.631Z,9.10
2022-10-31T23:19:12.241Z,9.10
2022-10-31T23:21:57.538Z,9.10
2022-10-31T23:24:37.093Z,9.10
2022-10-31T23:27:09.549Z,9.10
2022-10-31T23:29:41.323Z,9.10
2022-10-31T23:32:12.374Z,9.00
2022-10-31T23:34:39.934Z,9.00
2022-10-31T23:39:40.381Z,9.00
2022-10-31T23:42:07.875Z,9.00
2022-10-31T23:44:35.926Z,8.90
2022-10-31T23:47:04.598Z,8.90
2022-10-31T23:49:32.080Z,8.90
2022-10-31T23:51:59.754Z,8.90
2022-10-31T23:54:28.415Z,8.80
2022-10-31T23:56:56.573Z,8.80
2022-10-31T23:59:24.722Z,8.80
